Terminal Aerodrome Forecast
Issued by NWS

Home | Current Version | Previous Version | Text Only | Print | Product List | Glossary On
Versions: 1 2 3 4 5 6 7 8 9 10 11 12 13 14 15
000
FTUS46 KLOX 280532
TAFPMD
TAF
KPMD 280532Z 2806/2906 27018G28KT P6SM SCT200
     FM281100 30012KT P6SM SKC
     FM281700 35012G18KT P6SM SKC
     FM282300 35015G25KT P6SM SKC
     FM290500 31012G18KT P6SM SKC=

USA.gov is the U.S. government's official web portal to all federal, state and local government web resources and services.